METAR Data
IDs: Format: Raw Decoded Include TAF

Data at: 1620 UTC 21 Sep 2018

KCBK 211615Z AUTO 36008KT 10SM CLR 16/08 A3032 RMK AO2
KCBK 211555Z AUTO 33008KT 10SM CLR 16/09 A3032 RMK AO2
KCBK 211535Z AUTO 01007KT 10SM CLR 15/10 A3032 RMK AO2
KCBK 211515Z AUTO 35008KT 10SM CLR 15/10 A3032 RMK AO2
KCBK 211455Z AUTO 35008KT 10SM CLR 14/09 A3033 RMK AO2
KCBK 211435Z AUTO 34007KT 10SM CLR 13/10 A3033 RMK AO2
KCBK 211415Z AUTO 35006KT 10SM CLR 12/10 A3032 RMK AO2
KCBK 211355Z AUTO 34005KT 10SM CLR 11/10 A3032 RMK AO2
KCBK 211335Z AUTO 32006KT 10SM CLR 10/10 A3032 RMK AO2
KCBK 211315Z AUTO 33007KT 10SM CLR 10/10 A3031 RMK AO2
KCBK 211255Z AUTO 34008KT 10SM CLR 08/08 A3030 RMK AO2
KCBK 211235Z AUTO 31006KT 10SM CLR 08/08 A3029 RMK AO2
KCBK 211215Z AUTO 34005KT 10SM CLR 09/09 A3027 RMK AO2
KCBK 211155Z AUTO 34006KT 10SM CLR 09/09 A3026 RMK AO2
KCBK 211135Z AUTO 36004KT 10SM CLR 09/09 A3026 RMK AO2
KCBK 211115Z AUTO 36006KT 10SM CLR 10/10 A3024 RMK AO2
KCBK 211055Z AUTO 35006KT 10SM CLR 10/10 A3023 RMK AO2
KCBK 211035Z AUTO 36005KT 10SM CLR 10/10 A3022 RMK AO2
KCBK 211015Z AUTO 36006KT 10SM CLR 10/10 A3020 RMK AO2
KCBK 210955Z AUTO 36005KT 10SM CLR 10/10 A3020 RMK AO2
KCBK 210935Z AUTO 03005KT 10SM CLR 11/10 A3018 RMK AO2
KCBK 210915Z AUTO 03006KT 10SM CLR 11/10 A3018 RMK AO2
KCBK 210855Z AUTO 04006KT 10SM CLR 12/10 A3017 RMK AO2
KCBK 210835Z AUTO 01011KT 10SM CLR 12/10 A3014 RMK AO2
KCBK 210815Z AUTO 01015KT 10SM CLR 13/10 A3013 RMK AO2
KCBK 210755Z AUTO 01012G18KT 10SM CLR 13/11 A3013 RMK AO2
KCBK 210735Z AUTO 01015G20KT 10SM CLR 14/11 A3012 RMK AO2
KCBK 210715Z AUTO 01015KT 10SM CLR 14/12 A3010 RMK AO2
KCBK 210655Z AUTO 01010KT 10SM CLR 15/12 A3009 RMK AO2
KCBK 210635Z AUTO 01011KT 10SM CLR 15/12 A3008 RMK AO2
KCBK 210615Z AUTO 01010KT 10SM CLR 15/12 A3007 RMK AO2
KCBK 210555Z AUTO 02013KT 10SM CLR 16/13 A3007 RMK AO2
KCBK 210535Z AUTO 01011G15KT 10SM CLR 16/13 A3007 RMK AO2
KCBK 210515Z AUTO 36010KT 10SM SCT065 16/14 A3006 RMK AO2
KCBK 210455Z AUTO 36010G15KT 10SM SCT065 16/15 A3005 RMK AO2
KCBK 210435Z AUTO 36008KT 10SM CLR 16/16 A3003 RMK AO2
KCBK 210415Z AUTO 33003KT 10SM SCT095 SCT110 16/16 A3001 RMK AO2
KCBK 210355Z AUTO 36008KT 10SM SCT085 SCT110 16/16 A3000 RMK AO2
KCBK 210335Z AUTO 03004KT 10SM CLR 15/15 A2999 RMK AO2
KCBK 210315Z AUTO 01004KT 10SM CLR 16/16 A2998 RMK AO2
KCBK 210255Z AUTO 00000KT 10SM CLR 16/16 A2997 RMK AO2
KCBK 210235Z AUTO 00000KT 10SM CLR 17/16 A2995 RMK AO2
KCBK 210215Z AUTO 17004KT 10SM CLR 17/16 A2995 RMK AO2
KCBK 210155Z AUTO 05004KT 10SM CLR 17/16 A2995 RMK AO2
KCBK 210135Z AUTO 00000KT 10SM SCT080 18/15 A2993 RMK AO2
KCBK 210115Z AUTO 16003KT 10SM CLR 18/15 A2991 RMK AO2
KCBK 210055Z AUTO 17006KT 10SM CLR 18/15 A2990 RMK AO2
KCBK 210035Z AUTO 20005KT 10SM CLR 19/15 A2988 RMK AO2
KCBK 210015Z AUTO 20005KT 10SM CLR 19/13 A2987 RMK AO2
KCBK 202355Z AUTO 20005KT 10SM CLR 20/13 A2986 RMK AO2
KCBK 202335Z AUTO 17008KT 10SM CLR 21/13 A2985 RMK AO2
KCBK 202315Z AUTO 16009KT 10SM CLR 20/14 A2984 RMK AO2
KCBK 202255Z AUTO 15009KT 10SM SCT120 20/15 A2985 RMK AO2
KCBK 202235Z AUTO 15008KT 10SM SCT065 BKN110 20/15 A2985 RMK AO2
KCBK 202215Z AUTO 16008KT 10SM -RA SCT033 BKN065 OVC100 21/15 A2984 RMK AO2
KCBK 202155Z AUTO 17005KT 10SM SCT065 OVC100 21/15 A2983 RMK AO2
KCBK 202135Z AUTO 22005KT 10SM OVC110 22/15 A2982 RMK AO2
KCBK 202115Z AUTO 00000KT 10SM SCT075 SCT100 BKN120 22/12 A2980 RMK AO2
KCBK 202055Z AUTO 00000KT 10SM SCT040 SCT060 OVC100 21/13 A2980 RMK AO2
KCBK 202035Z AUTO 00000KT 3SM HZ SCT047 BKN085 OVC110 21/13 A2982 RMK AO2
KCBK 202015Z AUTO 15003KT 7SM -RA SCT044 BKN065 OVC075 20/15 A2984 RMK AO2
KCBK 201955Z AUTO 30004KT 10SM BKN065 OVC075 23/14 A2984 RMK AO2
KCBK 201935Z AUTO 32011G15KT 10SM SCT043 SCT050 OVC065 23/15 A2984 RMK AO2
KCBK 201915Z AUTO 32011G14KT 10SM SCT044 SCT049 BKN065 25/13 A2984 RMK AO2
KCBK 201855Z AUTO 26004KT 10SM SCT100 SCT120 25/13 A2984 RMK AO2
KCBK 201835Z AUTO 27004KT 10SM SCT100 26/13 A2983 RMK AO2
KCBK 201815Z AUTO 03003KT 10SM CLR 26/13 A2983 RMK AO2
KCBK 201755Z AUTO 30004KT 10SM CLR 26/13 A2982 RMK AO2
KCBK 201735Z AUTO 00000KT 10SM CLR 25/14 A2984 RMK AO2
KCBK 201715Z AUTO 29005KT 10SM CLR 24/15 A2984 RMK AO2
KCBK 201655Z AUTO 23003KT 10SM SCT110 23/15 A2985 RMK AO2
KCBK 201635Z AUTO 28008KT 10SM CLR 22/15 A2985 RMK AO2
KCBK 201615Z AUTO 34005KT 10SM CLR 22/15 A2985 RMK AO2
KCBK 201555Z AUTO 31006KT 10SM SCT110 21/15 A2986 RMK AO2
KCBK 201535Z AUTO 29007KT 10SM SCT014 21/15 A2985 RMK AO2
KCBK 201515Z AUTO 28006KT 10SM BKN014 20/15 A2985 RMK AO2
KCBK 201455Z AUTO 31006KT 10SM OVC012 19/15 A2985 RMK AO2
KCBK 201435Z AUTO 31008KT 10SM OVC010 18/15 A2985 RMK AO2
KCBK 201415Z AUTO 30010KT 10SM BKN010 OVC014 18/15 A2985 RMK AO2
KCBK 201355Z AUTO 31010G14KT 10SM SCT005 OVC010 17/16 A2985 RMK AO2
KCBK 201335Z AUTO 30009KT 10SM OVC003 16/16 A2984 RMK AO2
KCBK 201315Z AUTO 29010KT 4SM BR OVC003 16/16 A2984 RMK AO2
KCBK 201255Z AUTO 29011KT 1 1/2SM BR OVC003 16/16 A2984 RMK AO2
KCBK 201235Z AUTO 28007KT 3/4SM BR OVC003 16/16 A2983 RMK AO2
KCBK 201215Z AUTO 29004KT 5SM BR OVC003 17/17 A2981 RMK AO2
KCBK 201155Z AUTO 00000KT 5SM BR OVC003 17/17 A2980 RMK AO2
KCBK 201135Z AUTO 31004KT 5SM BR OVC003 17/17 A2979 RMK AO2
KCBK 201115Z AUTO 31005KT 7SM OVC003 17/17 A2980 RMK AO2
KCBK 201055Z AUTO 30003KT 7SM OVC003 17/17 A2980 RMK AO2
KCBK 201035Z AUTO 30005KT 7SM BKN005 16/16 A2980 RMK AO2
KCBK 201015Z AUTO 00000KT 7SM CLR 16/16 A2979 RMK AO2
KCBK 200955Z AUTO 00000KT 7SM SCT006 16/16 A2979 RMK AO2
KCBK 200935Z AUTO 29004KT 7SM BKN006 17/17 A2980 RMK AO2
KCBK 200915Z AUTO 30004KT 7SM BKN006 17/17 A2980 RMK AO2
KCBK 200855Z AUTO 30004KT 7SM SCT006 17/17 A2979 RMK AO2
KCBK 200835Z AUTO 30005KT 10SM CLR 17/16 A2980 RMK AO2
KCBK 200815Z AUTO 31007KT 10SM CLR 18/16 A2979 RMK AO2
KCBK 200755Z AUTO 30006KT 10SM CLR 18/16 A2979 RMK AO2
KCBK 200735Z AUTO 30007KT 10SM CLR 19/16 A2979 RMK AO2
KCBK 200715Z AUTO 29011KT 10SM CLR 21/16 A2979 RMK AO2
KCBK 200655Z AUTO 20011G19KT 10SM CLR 23/15 A2979 RMK AO2
KCBK 200635Z AUTO 20011KT 10SM CLR 23/15 A2979 RMK AO2
KCBK 200615Z AUTO 18015G21KT 10SM CLR 24/15 A2978 RMK AO2
KCBK 200555Z AUTO 17018G24KT 10SM CLR 25/15 A2978 RMK AO2
KCBK 200535Z AUTO 17019G24KT 10SM CLR 25/15 A2978 RMK AO2
KCBK 200515Z AUTO 17019G24KT 10SM CLR 25/15 A2979 RMK AO2
KCBK 200455Z AUTO 17019G25KT 10SM CLR 25/15 A2979 RMK AO2
KCBK 200435Z AUTO 17017G22KT 10SM CLR 25/14 A2979 RMK AO2